LiveATC.Net - Listen to live air traffic control over the Internet!


ICAO: LCPH  IATA: PFO   Airport: Paphos International Airport
City: Paphos
Country: Cyprus   Continent: Asia
LCPH METAR Weather: LCPH 261030Z 26010KT 9999 FEW020 31/24 Q1011
LCPH Flight Activity (FlightAware)
LCPH Gnd/Twr/App/Radar
Feed Status: DOWN
Last heard on: 2016-08-14 17:14:03 (11 days 18 hours 45 minutes ago)
LCPH Gnd/Twr/App/Radar Audio Archives
FacilityFrequency
Nicosia Radar124.200
Nicosia West Radar125.500
Pafos Tower119.900
Paphos Gnd/Twr/App119.900


NOTICE

Unauthorized use prohibited. See LiveATC.net Terms of Service


Find LiveATC Audio Streams


Airport/ARTCC Code

Frequency
(e.g., 124.400, 128.75)
Site-wide search

Browse LiveATC Feeds
LiveATC Coverage Map
Top 50 LiveATC Feeds
Bad Weather Areas

LiveATC FAQ
Offer a LiveATC Feed
Contact LiveATC.net
Press Inquiries

LiveATC on iPhone
LiveATC on Android

Windows Phone
Windows 8/10

LiveATC Mobile
(Mobile browser)

ATC Audio Archives
Interesting Recordings

LiveATC Forums


Home Page
About LiveATC.net
Make a Donation
LiveATC Store

Terms of Use
Privacy Policy

Canadian Air Freqs

AIRMETs/SIGMETs

FAA Airport Status
Nat'l Airspace Status
Arrival Demand Charts


Server Software By:
Icecast.org
Liquidsoap